sensor_id;sensor_type;location;lat;lon;timestamp;P1;durP1;ratioP1;P2;durP2;ratioP2
37107;SDS011;23019;49.300;6.846;2022-09-03T00:02:11;0.30;;;0.30;;
37107;SDS011;23019;49.300;6.846;2022-09-03T00:04:31;0.40;;;0.30;;
37107;SDS011;23019;49.300;6.846;2022-09-03T00:06:44;0.63;;;0.30;;
37107;SDS011;23019;49.300;6.846;2022-09-03T00:09:02;1.73;;;0.40;;
37107;SDS011;23019;49.300;6.846;2022-09-03T00:11:10;0.20;;;0.20;;
37107;SDS011;23019;49.300;6.846;2022-09-03T00:13:22;0.20;;;0.20;;
37107;SDS011;23019;49.300;6.846;2022-09-03T00:15:26;0.35;;;0.35;;
37107;SDS011;23019;49.300;6.846;2022-09-03T00:17:29;0.20;;;0.20;;
37107;SDS011;23019;49.300;6.846;2022-09-03T00:19:36;0.22;;;0.22;;
37107;SDS011;23019;49.300;6.846;2022-09-03T00:21:46;5.57;;;0.30;;
37107;SDS011;23019;49.300;6.846;2022-09-03T00:23:51;0.30;;;0.30;;
37107;SDS011;23019;49.300;6.846;2022-09-03T00:25:55;0.32;;;0.30;;
37107;SDS011;23019;49.300;6.846;2022-09-03T00:27:57;0.28;;;0.28;;
37107;SDS011;23019;49.300;6.846;2022-09-03T00:30:05;0.20;;;0.20;;
37107;SDS011;23019;49.300;6.846;2022-09-03T00:32:17;0.35;;;0.30;;
37107;SDS011;23019;49.300;6.846;2022-09-03T00:34:33;0.30;;;0.22;;
37107;SDS011;23019;49.300;6.846;2022-09-03T00:36:40;0.80;;;0.30;;
37107;SDS011;23019;49.300;6.846;2022-09-03T00:38:42;0.25;;;0.22;;
37107;SDS011;23019;49.300;6.846;2022-09-03T00:40:51;0.30;;;0.20;;
37107;SDS011;23019;49.300;6.846;2022-09-03T00:43:09;0.30;;;0.30;;
37107;SDS011;23019;49.300;6.846;2022-09-03T00:45:33;1.48;;;0.25;;
37107;SDS011;23019;49.300;6.846;2022-09-03T00:48:07;0.30;;;0.30;;
37107;SDS011;23019;49.300;6.846;2022-09-03T00:53:14;1.10;;;0.40;;
37107;SDS011;23019;49.300;6.846;2022-09-03T00:55:26;0.20;;;0.20;;
37107;SDS011;23019;49.300;6.846;2022-09-03T00:57:52;1.25;;;0.47;;
37107;SDS011;23019;49.300;6.846;2022-09-03T01:00:07;0.55;;;0.30;;
37107;SDS011;23019;49.300;6.846;2022-09-03T01:02:23;0.52;;;0.30;;
37107;SDS011;23019;49.300;6.846;2022-09-03T01:09:17;0.30;;;0.30;;
37107;SDS011;23019;49.300;6.846;2022-09-03T01:16:33;0.50;;;0.50;;
37107;SDS011;23019;49.300;6.846;2022-09-03T01:18:50;0.20;;;0.20;;
37107;SDS011;23019;49.300;6.846;2022-09-03T01:21:15;0.60;;;0.30;;
37107;SDS011;23019;49.300;6.846;2022-09-03T01:33:36;0.30;;;0.30;;
37107;SDS011;23019;49.300;6.846;2022-09-03T01:40:36;2.10;;;0.40;;
37107;SDS011;23019;49.300;6.846;2022-09-03T01:52:10;0.30;;;0.25;;
37107;SDS011;23019;49.300;6.846;2022-09-03T01:54:18;0.47;;;0.20;;
37107;SDS011;23019;49.300;6.846;2022-09-03T02:01:06;0.20;;;0.20;;
37107;SDS011;23019;49.300;6.846;2022-09-03T02:03:13;0.20;;;0.20;;
37107;SDS011;23019;49.300;6.846;2022-09-03T02:05:17;0.30;;;0.30;;
37107;SDS011;23019;49.300;6.846;2022-09-03T02:07:18;0.20;;;0.20;;
37107;SDS011;23019;49.300;6.846;2022-09-03T02:09:20;0.28;;;0.28;;
37107;SDS011;23019;49.300;6.846;2022-09-03T02:11:21;0.30;;;0.20;;
37107;SDS011;23019;49.300;6.846;2022-09-03T02:13:31;0.40;;;0.40;;
37107;SDS011;23019;49.300;6.846;2022-09-03T02:15:37;2.17;;;0.30;;
37107;SDS011;23019;49.300;6.846;2022-09-03T02:17:42;0.20;;;0.20;;
37107;SDS011;23019;49.300;6.846;2022-09-03T02:19:44;1.02;;;0.40;;
37107;SDS011;23019;49.300;6.846;2022-09-03T02:21:47;0.30;;;0.30;;
37107;SDS011;23019;49.300;6.846;2022-09-03T02:23:51;0.17;;;0.17;;
37107;SDS011;23019;49.300;6.846;2022-09-03T02:25:56;0.40;;;0.32;;
37107;SDS011;23019;49.300;6.846;2022-09-03T02:28:02;0.28;;;0.28;;
37107;SDS011;23019;49.300;6.846;2022-09-03T02:30:05;0.30;;;0.30;;
37107;SDS011;23019;49.300;6.846;2022-09-03T02:32:06;1.27;;;0.30;;
37107;SDS011;23019;49.300;6.846;2022-09-03T02:34:07;0.20;;;0.20;;
37107;SDS011;23019;49.300;6.846;2022-09-03T02:36:09;0.40;;;0.25;;
37107;SDS011;23019;49.300;6.846;2022-09-03T02:38:22;0.50;;;0.30;;
37107;SDS011;23019;49.300;6.846;2022-09-03T02:40:27;2.42;;;0.52;;
37107;SDS011;23019;49.300;6.846;2022-09-03T02:42:28;3.30;;;0.35;;
37107;SDS011;23019;49.300;6.846;2022-09-03T02:44:29;0.50;;;0.28;;
37107;SDS011;23019;49.300;6.846;2022-09-03T02:46:33;2.08;;;0.45;;
37107;SDS011;23019;49.300;6.846;2022-09-03T02:48:42;0.30;;;0.25;;
37107;SDS011;23019;49.300;6.846;2022-09-03T02:50:43;0.30;;;0.30;;
37107;SDS011;23019;49.300;6.846;2022-09-03T02:52:46;0.40;;;0.40;;
37107;SDS011;23019;49.300;6.846;2022-09-03T02:54:47;0.50;;;0.50;;
37107;SDS011;23019;49.300;6.846;2022-09-03T02:56:47;0.28;;;0.20;;
37107;SDS011;23019;49.300;6.846;2022-09-03T02:58:48;0.60;;;0.30;;
37107;SDS011;23019;49.300;6.846;2022-09-03T03:00:49;1.20;;;0.38;;
37107;SDS011;23019;49.300;6.846;2022-09-03T03:02:50;0.28;;;0.25;;
37107;SDS011;23019;49.300;6.846;2022-09-03T03:04:51;0.50;;;0.30;;
37107;SDS011;23019;49.300;6.846;2022-09-03T03:06:54;0.35;;;0.30;;
37107;SDS011;23019;49.300;6.846;2022-09-03T03:08:55;0.65;;;0.30;;
37107;SDS011;23019;49.300;6.846;2022-09-03T03:10:57;0.43;;;0.30;;
37107;SDS011;23019;49.300;6.846;2022-09-03T03:12:58;0.45;;;0.28;;
37107;SDS011;23019;49.300;6.846;2022-09-03T03:14:58;0.30;;;0.30;;
37107;SDS011;23019;49.300;6.846;2022-09-03T03:16:59;0.63;;;0.50;;
37107;SDS011;23019;49.300;6.846;2022-09-03T03:19:00;0.43;;;0.20;;
37107;SDS011;23019;49.300;6.846;2022-09-03T03:21:08;0.40;;;0.30;;
37107;SDS011;23019;49.300;6.846;2022-09-03T03:23:10;0.40;;;0.30;;
37107;SDS011;23019;49.300;6.846;2022-09-03T03:25:10;0.20;;;0.20;;
37107;SDS011;23019;49.300;6.846;2022-09-03T03:27:11;1.73;;;0.55;;
37107;SDS011;23019;49.300;6.846;2022-09-03T03:29:16;0.43;;;0.30;;
37107;SDS011;23019;49.300;6.846;2022-09-03T03:31:18;0.40;;;0.40;;
37107;SDS011;23019;49.300;6.846;2022-09-03T03:33:21;0.30;;;0.30;;
37107;SDS011;23019;49.300;6.846;2022-09-03T03:35:21;0.30;;;0.30;;
37107;SDS011;23019;49.300;6.846;2022-09-03T03:37:23;0.30;;;0.30;;
37107;SDS011;23019;49.300;6.846;2022-09-03T03:39:23;0.40;;;0.40;;
37107;SDS011;23019;49.300;6.846;2022-09-03T03:41:28;0.85;;;0.30;;
37107;SDS011;23019;49.300;6.846;2022-09-03T03:43:30;0.73;;;0.30;;
37107;SDS011;23019;49.300;6.846;2022-09-03T03:45:31;0.25;;;0.25;;
37107;SDS011;23019;49.300;6.846;2022-09-03T03:47:32;0.30;;;0.30;;
37107;SDS011;23019;49.300;6.846;2022-09-03T03:49:33;1.10;;;0.43;;
37107;SDS011;23019;49.300;6.846;2022-09-03T03:51:34;0.30;;;0.30;;
37107;SDS011;23019;49.300;6.846;2022-09-03T03:53:36;0.70;;;0.28;;
37107;SDS011;23019;49.300;6.846;2022-09-03T03:55:37;0.30;;;0.30;;
37107;SDS011;23019;49.300;6.846;2022-09-03T03:57:38;0.30;;;0.30;;
37107;SDS011;23019;49.300;6.846;2022-09-03T03:59:39;0.45;;;0.40;;
37107;SDS011;23019;49.300;6.846;2022-09-03T04:01:39;0.40;;;0.40;;
37107;SDS011;23019;49.300;6.846;2022-09-03T04:03:40;0.95;;;0.32;;
37107;SDS011;23019;49.300;6.846;2022-09-03T04:05:41;2.30;;;0.30;;
37107;SDS011;23019;49.300;6.846;2022-09-03T04:07:42;0.63;;;0.47;;
37107;SDS011;23019;49.300;6.846;2022-09-03T04:09:44;0.38;;;0.10;;
37107;SDS011;23019;49.300;6.846;2022-09-03T04:11:44;0.25;;;0.25;;
37107;SDS011;23019;49.300;6.846;2022-09-03T04:13:45;0.20;;;0.20;;
37107;SDS011;23019;49.300;6.846;2022-09-03T04:15:46;0.38;;;0.30;;
37107;SDS011;23019;49.300;6.846;2022-09-03T04:17:47;1.80;;;0.30;;
37107;SDS011;23019;49.300;6.846;2022-09-03T04:19:48;0.47;;;0.30;;
37107;SDS011;23019;49.300;6.846;2022-09-03T04:21:49;0.60;;;0.43;;
37107;SDS011;23019;49.300;6.846;2022-09-03T04:23:50;0.68;;;0.30;;
37107;SDS011;23019;49.300;6.846;2022-09-03T04:25:51;0.43;;;0.35;;
37107;SDS011;23019;49.300;6.846;2022-09-03T04:27:52;0.55;;;0.40;;
37107;SDS011;23019;49.300;6.846;2022-09-03T04:29:53;0.40;;;0.40;;
37107;SDS011;23019;49.300;6.846;2022-09-03T04:31:54;0.30;;;0.30;;
37107;SDS011;23019;49.300;6.846;2022-09-03T04:34:13;1.55;;;0.50;;
37107;SDS011;23019;49.300;6.846;2022-09-03T04:36:15;0.30;;;0.30;;
37107;SDS011;23019;49.300;6.846;2022-09-03T04:38:18;1.10;;;0.25;;
37107;SDS011;23019;49.300;6.846;2022-09-03T04:40:19;0.30;;;0.30;;
37107;SDS011;23019;49.300;6.846;2022-09-03T04:42:19;2.28;;;0.55;;
37107;SDS011;23019;49.300;6.846;2022-09-03T04:44:21;0.40;;;0.40;;
37107;SDS011;23019;49.300;6.846;2022-09-03T04:46:22;0.20;;;0.20;;
37107;SDS011;23019;49.300;6.846;2022-09-03T04:48:25;0.73;;;0.50;;
37107;SDS011;23019;49.300;6.846;2022-09-03T04:50:27;0.35;;;0.30;;
37107;SDS011;23019;49.300;6.846;2022-09-03T04:52:35;0.95;;;0.40;;
37107;SDS011;23019;49.300;6.846;2022-09-03T04:54:37;0.57;;;0.30;;
37107;SDS011;23019;49.300;6.846;2022-09-03T04:56:40;0.32;;;0.32;;
37107;SDS011;23019;49.300;6.846;2022-09-03T04:58:41;4.03;;;0.40;;
37107;SDS011;23019;49.300;6.846;2022-09-03T05:00:43;0.28;;;0.28;;
37107;SDS011;23019;49.300;6.846;2022-09-03T05:02:44;0.60;;;0.40;;
37107;SDS011;23019;49.300;6.846;2022-09-03T05:04:47;0.55;;;0.40;;
37107;SDS011;23019;49.300;6.846;2022-09-03T05:06:48;0.38;;;0.30;;
37107;SDS011;23019;49.300;6.846;2022-09-03T05:08:52;0.43;;;0.30;;
37107;SDS011;23019;49.300;6.846;2022-09-03T05:10:57;0.43;;;0.40;;
37107;SDS011;23019;49.300;6.846;2022-09-03T05:13:00;0.38;;;0.38;;
37107;SDS011;23019;49.300;6.846;2022-09-03T05:15:01;0.50;;;0.40;;
37107;SDS011;23019;49.300;6.846;2022-09-03T05:17:04;0.40;;;0.40;;
37107;SDS011;23019;49.300;6.846;2022-09-03T05:19:05;0.65;;;0.40;;
37107;SDS011;23019;49.300;6.846;2022-09-03T05:21:07;0.43;;;0.43;;
37107;SDS011;23019;49.300;6.846;2022-09-03T05:23:09;0.40;;;0.30;;
37107;SDS011;23019;49.300;6.846;2022-09-03T05:25:10;0.50;;;0.50;;
37107;SDS011;23019;49.300;6.846;2022-09-03T05:27:11;0.43;;;0.40;;
37107;SDS011;23019;49.300;6.846;2022-09-03T05:29:12;0.40;;;0.40;;
37107;SDS011;23019;49.300;6.846;2022-09-03T05:31:17;0.68;;;0.60;;
37107;SDS011;23019;49.300;6.846;2022-09-03T05:33:19;0.50;;;0.30;;
37107;SDS011;23019;49.300;6.846;2022-09-03T05:35:22;1.85;;;0.52;;
37107;SDS011;23019;49.300;6.846;2022-09-03T05:37:24;0.68;;;0.45;;
37107;SDS011;23019;49.300;6.846;2022-09-03T05:39:25;0.47;;;0.40;;
37107;SDS011;23019;49.300;6.846;2022-09-03T05:41:26;2.38;;;0.40;;
37107;SDS011;23019;49.300;6.846;2022-09-03T05:43:28;0.68;;;0.43;;
37107;SDS011;23019;49.300;6.846;2022-09-03T05:45:30;0.40;;;0.40;;
37107;SDS011;23019;49.300;6.846;2022-09-03T05:47:32;0.40;;;0.40;;
37107;SDS011;23019;49.300;6.846;2022-09-03T05:49:32;0.40;;;0.40;;
37107;SDS011;23019;49.300;6.846;2022-09-03T05:51:34;2.13;;;0.30;;
37107;SDS011;23019;49.300;6.846;2022-09-03T05:53:36;0.50;;;0.40;;
37107;SDS011;23019;49.300;6.846;2022-09-03T05:55:38;3.50;;;0.60;;
37107;SDS011;23019;49.300;6.846;2022-09-03T05:57:39;0.50;;;0.40;;
37107;SDS011;23019;49.300;6.846;2022-09-03T05:59:40;2.30;;;0.52;;
37107;SDS011;23019;49.300;6.846;2022-09-03T06:01:41;0.47;;;0.47;;
37107;SDS011;23019;49.300;6.846;2022-09-03T06:03:45;1.83;;;0.45;;
37107;SDS011;23019;49.300;6.846;2022-09-03T06:06:06;6.00;;;0.75;;
37107;SDS011;23019;49.300;6.846;2022-09-03T06:08:07;0.77;;;0.50;;
37107;SDS011;23019;49.300;6.846;2022-09-03T06:10:08;1.58;;;1.23;;
37107;SDS011;23019;49.300;6.846;2022-09-03T06:12:10;0.47;;;0.40;;
37107;SDS011;23019;49.300;6.846;2022-09-03T06:14:12;0.68;;;0.45;;
37107;SDS011;23019;49.300;6.846;2022-09-03T06:16:13;0.50;;;0.40;;
37107;SDS011;23019;49.300;6.846;2022-09-03T06:18:14;0.55;;;0.50;;
37107;SDS011;23019;49.300;6.846;2022-09-03T06:20:15;0.57;;;0.35;;
37107;SDS011;23019;49.300;6.846;2022-09-03T06:22:15;2.00;;;0.50;;
37107;SDS011;23019;49.300;6.846;2022-09-03T06:24:17;0.63;;;0.47;;
37107;SDS011;23019;49.300;6.846;2022-09-03T06:26:19;0.88;;;0.50;;
37107;SDS011;23019;49.300;6.846;2022-09-03T06:28:20;0.30;;;0.30;;
37107;SDS011;23019;49.300;6.846;2022-09-03T06:30:21;0.93;;;0.65;;
37107;SDS011;23019;49.300;6.846;2022-09-03T06:32:23;0.57;;;0.50;;
37107;SDS011;23019;49.300;6.846;2022-09-03T06:34:28;2.28;;;0.30;;
37107;SDS011;23019;49.300;6.846;2022-09-03T06:36:28;0.30;;;0.30;;
37107;SDS011;23019;49.300;6.846;2022-09-03T06:38:30;0.55;;;0.43;;
37107;SDS011;23019;49.300;6.846;2022-09-03T06:40:34;0.45;;;0.40;;
37107;SDS011;23019;49.300;6.846;2022-09-03T06:42:35;0.63;;;0.55;;
37107;SDS011;23019;49.300;6.846;2022-09-03T06:44:36;0.50;;;0.50;;
37107;SDS011;23019;49.300;6.846;2022-09-03T06:46:38;0.40;;;0.40;;
37107;SDS011;23019;49.300;6.846;2022-09-03T06:48:41;3.30;;;0.70;;
37107;SDS011;23019;49.300;6.846;2022-09-03T06:50:42;0.77;;;0.50;;
37107;SDS011;23019;49.300;6.846;2022-09-03T06:52:43;0.47;;;0.40;;
37107;SDS011;23019;49.300;6.846;2022-09-03T06:54:44;0.65;;;0.50;;
37107;SDS011;23019;49.300;6.846;2022-09-03T06:56:44;1.05;;;0.60;;
37107;SDS011;23019;49.300;6.846;2022-09-03T06:58:45;0.50;;;0.50;;
37107;SDS011;23019;49.300;6.846;2022-09-03T07:00:48;0.43;;;0.40;;
37107;SDS011;23019;49.300;6.846;2022-09-03T07:02:54;0.73;;;0.50;;
37107;SDS011;23019;49.300;6.846;2022-09-03T07:04:57;0.35;;;0.35;;
37107;SDS011;23019;49.300;6.846;2022-09-03T07:06:58;0.30;;;0.30;;
37107;SDS011;23019;49.300;6.846;2022-09-03T07:08:59;0.85;;;0.40;;
37107;SDS011;23019;49.300;6.846;2022-09-03T07:11:01;0.40;;;0.40;;
37107;SDS011;23019;49.300;6.846;2022-09-03T07:13:05;0.55;;;0.50;;
37107;SDS011;23019;49.300;6.846;2022-09-03T07:15:05;0.40;;;0.40;;
37107;SDS011;23019;49.300;6.846;2022-09-03T07:17:09;1.02;;;0.30;;
37107;SDS011;23019;49.300;6.846;2022-09-03T07:19:10;1.13;;;0.40;;
37107;SDS011;23019;49.300;6.846;2022-09-03T07:21:16;0.88;;;0.30;;
37107;SDS011;23019;49.300;6.846;2022-09-03T07:23:18;1.63;;;0.30;;
37107;SDS011;23019;49.300;6.846;2022-09-03T07:25:19;0.60;;;0.60;;
37107;SDS011;23019;49.300;6.846;2022-09-03T07:27:19;0.55;;;0.40;;
37107;SDS011;23019;49.300;6.846;2022-09-03T07:29:20;11.38;;;0.60;;
37107;SDS011;23019;49.300;6.846;2022-09-03T07:31:28;6.65;;;1.20;;
37107;SDS011;23019;49.300;6.846;2022-09-03T07:33:39;5.47;;;0.50;;
37107;SDS011;23019;49.300;6.846;2022-09-03T07:35:40;5.15;;;0.60;;
37107;SDS011;23019;49.300;6.846;2022-09-03T07:37:41;2.90;;;0.85;;
37107;SDS011;23019;49.300;6.846;2022-09-03T07:39:42;0.93;;;0.35;;
37107;SDS011;23019;49.300;6.846;2022-09-03T07:41:43;9.50;;;0.68;;
37107;SDS011;23019;49.300;6.846;2022-09-03T07:43:50;2.83;;;0.52;;
37107;SDS011;23019;49.300;6.846;2022-09-03T07:45:51;1.60;;;0.52;;
37107;SDS011;23019;49.300;6.846;2022-09-03T07:47:57;2.58;;;0.60;;
37107;SDS011;23019;49.300;6.846;2022-09-03T07:49:58;1.85;;;0.60;;
37107;SDS011;23019;49.300;6.846;2022-09-03T07:51:59;2.28;;;0.80;;
37107;SDS011;23019;49.300;6.846;2022-09-03T07:54:02;3.42;;;0.77;;
37107;SDS011;23019;49.300;6.846;2022-09-03T07:56:09;4.90;;;0.90;;
37107;SDS011;23019;49.300;6.846;2022-09-03T07:58:10;4.10;;;0.80;;
37107;SDS011;23019;49.300;6.846;2022-09-03T08:00:13;3.88;;;0.93;;
37107;SDS011;23019;49.300;6.846;2022-09-03T08:02:14;2.05;;;0.50;;
37107;SDS011;23019;49.300;6.846;2022-09-03T08:04:15;2.70;;;0.63;;
37107;SDS011;23019;49.300;6.846;2022-09-03T08:06:16;4.15;;;0.98;;
37107;SDS011;23019;49.300;6.846;2022-09-03T08:08:19;1.80;;;0.70;;
37107;SDS011;23019;49.300;6.846;2022-09-03T08:10:20;1.73;;;0.80;;
37107;SDS011;23019;49.300;6.846;2022-09-03T08:12:21;1.17;;;0.77;;
37107;SDS011;23019;49.300;6.846;2022-09-03T08:14:22;1.92;;;0.93;;
37107;SDS011;23019;49.300;6.846;2022-09-03T08:16:23;2.67;;;0.88;;
37107;SDS011;23019;49.300;6.846;2022-09-03T08:18:24;1.58;;;0.70;;
37107;SDS011;23019;49.300;6.846;2022-09-03T08:20:26;2.05;;;0.57;;
37107;SDS011;23019;49.300;6.846;2022-09-03T08:22:27;1.20;;;0.88;;
37107;SDS011;23019;49.300;6.846;2022-09-03T08:24:28;1.13;;;0.80;;
37107;SDS011;23019;49.300;6.846;2022-09-03T08:26:30;1.92;;;1.13;;
37107;SDS011;23019;49.300;6.846;2022-09-03T08:28:32;4.05;;;0.90;;
37107;SDS011;23019;49.300;6.846;2022-09-03T08:30:33;1.88;;;0.68;;
37107;SDS011;23019;49.300;6.846;2022-09-03T08:32:35;1.88;;;1.00;;
37107;SDS011;23019;49.300;6.846;2022-09-03T08:34:39;5.75;;;0.70;;
37107;SDS011;23019;49.300;6.846;2022-09-03T08:36:39;1.88;;;0.75;;
37107;SDS011;23019;49.300;6.846;2022-09-03T08:38:41;3.88;;;0.93;;
37107;SDS011;23019;49.300;6.846;2022-09-03T08:40:45;1.05;;;0.70;;
37107;SDS011;23019;49.300;6.846;2022-09-03T08:45:07;2.28;;;0.75;;
37107;SDS011;23019;49.300;6.846;2022-09-03T08:47:15;0.73;;;0.50;;
37107;SDS011;23019;49.300;6.846;2022-09-03T08:51:33;2.05;;;0.93;;
37107;SDS011;23019;49.300;6.846;2022-09-03T08:53:43;0.80;;;0.70;;
37107;SDS011;23019;49.300;6.846;2022-09-03T08:55:52;1.70;;;0.63;;
37107;SDS011;23019;49.300;6.846;2022-09-03T08:58:01;0.55;;;0.50;;
37107;SDS011;23019;49.300;6.846;2022-09-03T09:00:12;4.00;;;0.80;;
37107;SDS011;23019;49.300;6.846;2022-09-03T09:07:32;5.28;;;1.20;;
37107;SDS011;23019;49.300;6.846;2022-09-03T09:09:59;1.42;;;1.08;;
37107;SDS011;23019;49.300;6.846;2022-09-03T09:12:13;4.27;;;1.17;;
37107;SDS011;23019;49.300;6.846;2022-09-03T09:14:49;1.70;;;0.70;;
37107;SDS011;23019;49.300;6.846;2022-09-03T09:20:17;1.10;;;0.70;;
37107;SDS011;23019;49.300;6.846;2022-09-03T09:24:48;2.25;;;1.00;;
37107;SDS011;23019;49.300;6.846;2022-09-03T09:26:57;2.13;;;1.30;;
37107;SDS011;23019;49.300;6.846;2022-09-03T09:29:04;1.77;;;1.35;;
37107;SDS011;23019;49.300;6.846;2022-09-03T09:31:10;5.00;;;1.05;;
37107;SDS011;23019;49.300;6.846;2022-09-03T09:33:16;1.60;;;1.20;;
37107;SDS011;23019;49.300;6.846;2022-09-03T09:35:17;1.40;;;1.30;;
37107;SDS011;23019;49.300;6.846;2022-09-03T09:37:19;2.05;;;1.20;;
37107;SDS011;23019;49.300;6.846;2022-09-03T09:39:21;6.45;;;1.27;;
37107;SDS011;23019;49.300;6.846;2022-09-03T09:41:22;4.75;;;1.13;;
37107;SDS011;23019;49.300;6.846;2022-09-03T09:43:24;2.22;;;1.20;;
37107;SDS011;23019;49.300;6.846;2022-09-03T09:45:24;3.75;;;1.38;;
37107;SDS011;23019;49.300;6.846;2022-09-03T09:47:30;5.97;;;1.50;;
37107;SDS011;23019;49.300;6.846;2022-09-03T09:49:42;4.57;;;1.15;;
37107;SDS011;23019;49.300;6.846;2022-09-03T09:52:01;5.60;;;1.35;;
37107;SDS011;23019;49.300;6.846;2022-09-03T09:54:17;3.88;;;1.55;;
37107;SDS011;23019;49.300;6.846;2022-09-03T09:56:26;5.50;;;1.40;;
37107;SDS011;23019;49.300;6.846;2022-09-03T09:58:28;2.20;;;1.35;;
37107;SDS011;23019;49.300;6.846;2022-09-03T10:00:30;2.60;;;1.40;;
37107;SDS011;23019;49.300;6.846;2022-09-03T10:02:34;2.88;;;1.10;;
37107;SDS011;23019;49.300;6.846;2022-09-03T10:04:41;2.00;;;1.30;;
37107;SDS011;23019;49.300;6.846;2022-09-03T10:06:44;6.20;;;1.55;;
37107;SDS011;23019;49.300;6.846;2022-09-03T10:09:08;1.95;;;0.90;;
37107;SDS011;23019;49.300;6.846;2022-09-03T10:11:09;2.88;;;1.10;;
37107;SDS011;23019;49.300;6.846;2022-09-03T10:13:11;1.38;;;1.17;;
37107;SDS011;23019;49.300;6.846;2022-09-03T10:15:44;2.03;;;1.00;;
37107;SDS011;23019;49.300;6.846;2022-09-03T10:20:12;1.85;;;1.08;;
37107;SDS011;23019;49.300;6.846;2022-09-03T10:22:31;3.20;;;1.20;;
37107;SDS011;23019;49.300;6.846;2022-09-03T10:24:53;1.90;;;1.40;;
37107;SDS011;23019;49.300;6.846;2022-09-03T10:26:58;1.98;;;1.20;;
37107;SDS011;23019;49.300;6.846;2022-09-03T10:28:59;1.88;;;0.90;;
37107;SDS011;23019;49.300;6.846;2022-09-03T10:33:25;1.30;;;1.13;;
37107;SDS011;23019;49.300;6.846;2022-09-03T10:35:42;2.35;;;0.98;;
37107;SDS011;23019;49.300;6.846;2022-09-03T10:37:50;0.60;;;0.60;;
37107;SDS011;23019;49.300;6.846;2022-09-03T10:47:02;1.55;;;1.10;;
37107;SDS011;23019;49.300;6.846;2022-09-03T10:49:48;1.80;;;1.00;;
37107;SDS011;23019;49.300;6.846;2022-09-03T10:54:31;0.75;;;0.75;;
37107;SDS011;23019;49.300;6.846;2022-09-03T10:57:07;2.00;;;1.08;;
37107;SDS011;23019;49.300;6.846;2022-09-03T11:06:28;2.17;;;1.08;;
37107;SDS011;23019;49.300;6.846;2022-09-03T11:08:36;2.72;;;0.98;;
37107;SDS011;23019;49.300;6.846;2022-09-03T11:10:45;3.55;;;1.15;;
37107;SDS011;23019;49.300;6.846;2022-09-03T11:12:54;1.85;;;0.95;;
37107;SDS011;23019;49.300;6.846;2022-09-03T11:20:10;2.13;;;1.20;;
37107;SDS011;23019;49.300;6.846;2022-09-03T11:22:25;1.85;;;1.10;;
37107;SDS011;23019;49.300;6.846;2022-09-03T11:24:28;1.27;;;1.10;;
37107;SDS011;23019;49.300;6.846;2022-09-03T11:26:32;2.45;;;0.95;;
37107;SDS011;23019;49.300;6.846;2022-09-03T11:33:24;2.22;;;1.05;;
37107;SDS011;23019;49.300;6.846;2022-09-03T11:35:35;1.23;;;1.05;;
37107;SDS011;23019;49.300;6.846;2022-09-03T11:37:44;1.30;;;1.20;;
37107;SDS011;23019;49.300;6.846;2022-09-03T11:40:03;1.58;;;1.00;;
37107;SDS011;23019;49.300;6.846;2022-09-03T11:42:10;1.02;;;0.93;;
37107;SDS011;23019;49.300;6.846;2022-09-03T11:44:20;1.88;;;1.30;;
37107;SDS011;23019;49.300;6.846;2022-09-03T11:50:53;3.58;;;1.13;;
37107;SDS011;23019;49.300;6.846;2022-09-03T11:53:06;1.67;;;1.17;;
37107;SDS011;23019;49.300;6.846;2022-09-03T11:55:10;2.10;;;1.05;;
37107;SDS011;23019;49.300;6.846;2022-09-03T11:57:12;1.88;;;1.02;;
37107;SDS011;23019;49.300;6.846;2022-09-03T11:59:21;1.40;;;0.90;;
37107;SDS011;23019;49.300;6.846;2022-09-03T12:03:42;1.15;;;1.05;;
37107;SDS011;23019;49.300;6.846;2022-09-03T12:10:53;2.55;;;1.05;;
37107;SDS011;23019;49.300;6.846;2022-09-03T12:13:11;1.80;;;1.42;;
37107;SDS011;23019;49.300;6.846;2022-09-03T12:17:54;1.30;;;0.90;;
37107;SDS011;23019;49.300;6.846;2022-09-03T12:20:18;1.20;;;1.10;;
37107;SDS011;23019;49.300;6.846;2022-09-03T12:22:25;1.63;;;1.52;;
37107;SDS011;23019;49.300;6.846;2022-09-03T12:24:30;1.00;;;0.95;;
37107;SDS011;23019;49.300;6.846;2022-09-03T12:26:42;1.35;;;1.20;;
37107;SDS011;23019;49.300;6.846;2022-09-03T12:28:44;1.20;;;1.10;;
37107;SDS011;23019;49.300;6.846;2022-09-03T12:30:47;3.42;;;1.13;;
37107;SDS011;23019;49.300;6.846;2022-09-03T12:33:01;1.88;;;1.42;;
37107;SDS011;23019;49.300;6.846;2022-09-03T12:35:14;0.90;;;0.80;;
37107;SDS011;23019;49.300;6.846;2022-09-03T12:37:20;1.20;;;1.10;;
37107;SDS011;23019;49.300;6.846;2022-09-03T12:39:24;1.88;;;0.75;;
37107;SDS011;23019;49.300;6.846;2022-09-03T12:41:27;3.03;;;1.38;;
37107;SDS011;23019;49.300;6.846;2022-09-03T12:43:30;1.40;;;1.13;;
37107;SDS011;23019;49.300;6.846;2022-09-03T12:45:31;2.20;;;1.20;;
37107;SDS011;23019;49.300;6.846;2022-09-03T12:47:41;1.38;;;0.88;;
37107;SDS011;23019;49.300;6.846;2022-09-03T12:49:43;1.40;;;1.30;;
37107;SDS011;23019;49.300;6.846;2022-09-03T12:51:45;0.80;;;0.80;;
37107;SDS011;23019;49.300;6.846;2022-09-03T12:53:47;1.67;;;1.25;;
37107;SDS011;23019;49.300;6.846;2022-09-03T12:55:51;1.30;;;1.05;;
37107;SDS011;23019;49.300;6.846;2022-09-03T12:58:41;1.27;;;1.00;;
37107;SDS011;23019;49.300;6.846;2022-09-03T13:00:26;1.00;;;0.73;;
37107;SDS011;23019;49.300;6.846;2022-09-03T13:02:34;1.10;;;1.00;;
37107;SDS011;23019;49.300;6.846;2022-09-03T13:04:45;1.75;;;1.13;;
37107;SDS011;23019;49.300;6.846;2022-09-03T13:06:58;1.60;;;1.10;;
37107;SDS011;23019;49.300;6.846;2022-09-03T13:09:05;1.73;;;1.00;;
37107;SDS011;23019;49.300;6.846;2022-09-03T13:11:08;1.15;;;0.98;;
37107;SDS011;23019;49.300;6.846;2022-09-03T13:13:22;2.03;;;1.30;;
37107;SDS011;23019;49.300;6.846;2022-09-03T13:15:28;1.65;;;1.40;;
37107;SDS011;23019;49.300;6.846;2022-09-03T13:19:46;1.13;;;1.02;;
37107;SDS011;23019;49.300;6.846;2022-09-03T13:30:54;1.08;;;0.77;;
37107;SDS011;23019;49.300;6.846;2022-09-03T13:33:31;1.38;;;1.27;;
37107;SDS011;23019;49.300;6.846;2022-09-03T13:35:53;0.95;;;0.85;;
37107;SDS011;23019;49.300;6.846;2022-09-03T13:38:06;1.52;;;1.33;;
37107;SDS011;23019;49.300;6.846;2022-09-03T13:42:19;1.20;;;1.10;;
37107;SDS011;23019;49.300;6.846;2022-09-03T13:46:49;1.90;;;1.35;;
37107;SDS011;23019;49.300;6.846;2022-09-03T13:51:46;1.17;;;1.08;;
37107;SDS011;23019;49.300;6.846;2022-09-03T13:59:00;1.02;;;0.93;;
37107;SDS011;23019;49.300;6.846;2022-09-03T14:01:19;1.00;;;0.90;;
37107;SDS011;23019;49.300;6.846;2022-09-03T14:19:55;1.45;;;1.35;;
37107;SDS011;23019;49.300;6.846;2022-09-03T14:24:38;0.80;;;0.80;;
37107;SDS011;23019;49.300;6.846;2022-09-03T14:26:49;0.85;;;0.80;;
37107;SDS011;23019;49.300;6.846;2022-09-03T14:29:03;1.08;;;0.73;;
37107;SDS011;23019;49.300;6.846;2022-09-03T14:31:14;0.77;;;0.77;;
37107;SDS011;23019;49.300;6.846;2022-09-03T14:33:39;1.13;;;1.02;;
37107;SDS011;23019;49.300;6.846;2022-09-03T14:43:40;0.82;;;0.82;;
37107;SDS011;23019;49.300;6.846;2022-09-03T14:46:14;0.90;;;0.90;;
37107;SDS011;23019;49.300;6.846;2022-09-03T14:48:27;1.92;;;1.00;;
37107;SDS011;23019;49.300;6.846;2022-09-03T14:53:16;1.00;;;0.93;;
37107;SDS011;23019;49.300;6.846;2022-09-03T15:11:33;1.17;;;0.85;;
37107;SDS011;23019;49.300;6.846;2022-09-03T15:13:45;1.65;;;0.90;;
37107;SDS011;23019;49.300;6.846;2022-09-03T15:15:53;0.90;;;0.90;;
37107;SDS011;23019;49.300;6.846;2022-09-03T15:23:01;1.67;;;0.90;;
37107;SDS011;23019;49.300;6.846;2022-09-03T15:25:37;0.65;;;0.63;;
37107;SDS011;23019;49.300;6.846;2022-09-03T15:36:52;0.93;;;0.70;;
37107;SDS011;23019;49.300;6.846;2022-09-03T15:39:00;1.57;;;0.83;;
37107;SDS011;23019;49.300;6.846;2022-09-03T15:42:09;1.13;;;0.80;;
37107;SDS011;23019;49.300;6.846;2022-09-03T15:43:50;0.95;;;0.82;;
37107;SDS011;23019;49.300;6.846;2022-09-03T15:46:04;0.73;;;0.70;;
37107;SDS011;23019;49.300;6.846;2022-09-03T15:48:16;0.80;;;0.68;;